createdAt,value
2023-01-21T00:00:31.051Z,1.99
2023-01-21T00:01:31.000Z,1.99
2023-01-21T00:02:31.078Z,1.98
2023-01-21T00:03:31.100Z,1.99
2023-01-21T00:04:31.030Z,1.98
2023-01-21T00:05:30.947Z,1.98
2023-01-21T00:06:30.976Z,1.98
2023-01-21T00:07:30.942Z,1.99
2023-01-21T00:08:30.967Z,1.99
2023-01-21T00:09:30.919Z,1.99
2023-01-21T00:10:30.910Z,1.99
2023-01-21T00:11:30.871Z,1.95
2023-01-21T00:12:30.891Z,1.93
2023-01-21T00:13:30.844Z,1.90
2023-01-21T00:14:30.878Z,1.88
2023-01-21T00:15:30.864Z,1.88
2023-01-21T00:16:30.858Z,1.90
2023-01-21T00:17:30.798Z,1.88
2023-01-21T00:18:30.833Z,1.88
2023-01-21T00:19:30.800Z,1.86
2023-01-21T00:20:30.810Z,1.83
2023-01-21T00:21:30.738Z,1.79
2023-01-21T00:22:30.754Z,1.77
2023-01-21T00:23:30.749Z,1.73
2023-01-21T00:24:30.765Z,1.72
2023-01-21T00:25:30.711Z,1.70
2023-01-21T00:26:30.699Z,1.68
2023-01-21T00:27:30.671Z,1.66
2023-01-21T00:28:30.684Z,1.66
2023-01-21T00:29:30.649Z,1.66
2023-01-21T00:30:30.821Z,1.65
2023-01-21T00:31:30.719Z,1.63
2023-01-21T00:32:30.636Z,1.63
2023-01-21T00:33:30.630Z,1.62
2023-01-21T00:34:30.621Z,1.59
2023-01-21T00:35:30.566Z,1.58
2023-01-21T00:36:30.577Z,1.52
2023-01-21T00:37:30.543Z,1.50
2023-01-21T00:38:30.613Z,1.51
2023-01-21T00:39:30.509Z,1.54
2023-01-21T00:40:30.526Z,1.54
2023-01-21T00:41:30.492Z,1.55
2023-01-21T00:42:30.505Z,1.55
2023-01-21T00:43:30.469Z,1.58
2023-01-21T00:44:30.494Z,1.58
2023-01-21T00:45:30.450Z,1.59
2023-01-21T00:46:30.479Z,1.60
2023-01-21T00:47:30.400Z,1.60
2023-01-21T00:48:30.434Z,1.59
2023-01-21T00:49:30.418Z,1.59
2023-01-21T00:50:30.409Z,1.59
2023-01-21T00:51:30.355Z,1.59
2023-01-21T00:52:30.369Z,1.60
2023-01-21T00:53:30.354Z,1.59
2023-01-21T00:54:30.350Z,1.59
2023-01-21T00:55:30.313Z,1.60
2023-01-21T00:56:30.311Z,1.59
2023-01-21T00:57:30.316Z,1.58
2023-01-21T00:58:30.298Z,1.58
2023-01-21T00:59:30.257Z,1.58
2023-01-21T01:00:30.279Z,1.54
2023-01-21T01:01:30.315Z,1.52
2023-01-21T01:02:30.338Z,1.52
2023-01-21T01:03:30.218Z,1.47
2023-01-21T01:04:30.248Z,1.45
2023-01-21T01:05:30.187Z,1.44
2023-01-21T01:06:30.196Z,1.44
2023-01-21T01:07:30.151Z,1.42
2023-01-21T01:08:30.189Z,1.40
2023-01-21T01:09:30.149Z,1.36
2023-01-21T01:10:30.167Z,1.34
2023-01-21T01:11:30.095Z,1.34
2023-01-21T01:12:30.129Z,1.34
2023-01-21T01:13:30.092Z,1.34
2023-01-21T01:14:30.098Z,1.36
2023-01-21T01:15:30.056Z,1.34
2023-01-21T01:16:30.075Z,1.34
2023-01-21T01:17:30.039Z,1.34
2023-01-21T01:18:30.078Z,1.36
2023-01-21T01:19:30.050Z,1.37
2023-01-21T01:20:30.012Z,1.40
2023-01-21T01:21:29.972Z,1.40
2023-01-21T01:22:29.986Z,1.40
2023-01-21T01:23:29.943Z,1.40
2023-01-21T01:24:29.979Z,1.41
2023-01-21T01:25:29.931Z,1.41
2023-01-21T01:26:29.944Z,1.42
2023-01-21T01:27:29.905Z,1.44
2023-01-21T01:28:29.908Z,1.44
2023-01-21T01:29:29.902Z,1.45
2023-01-21T01:30:29.930Z,1.47
2023-01-21T01:31:29.936Z,1.47
2023-01-21T01:32:29.869Z,1.47
2023-01-21T01:33:29.821Z,1.47
2023-01-21T01:34:29.854Z,1.47
2023-01-21T01:35:29.821Z,1.44
2023-01-21T01:36:29.799Z,1.42
2023-01-21T01:37:29.766Z,1.40
2023-01-21T01:38:29.780Z,1.40
2023-01-21T01:39:29.734Z,1.40
2023-01-21T01:40:29.753Z,1.34
2023-01-21T01:41:29.740Z,1.33
2023-01-21T01:42:29.725Z,1.33
2023-01-21T01:43:29.694Z,1.30
2023-01-21T01:44:29.699Z,1.30
2023-01-21T01:45:29.667Z,1.29
2023-01-21T01:46:29.793Z,1.30
2023-01-21T01:47:29.735Z,1.30
2023-01-21T01:48:29.645Z,1.30
2023-01-21T01:49:29.604Z,1.27
2023-01-21T01:50:29.641Z,1.26
2023-01-21T01:51:29.581Z,1.24
2023-01-21T01:52:29.593Z,1.23
2023-01-21T01:53:29.557Z,1.22
2023-01-21T01:54:29.585Z,1.22
2023-01-21T01:55:29.533Z,1.22
2023-01-21T01:56:29.567Z,1.18
2023-01-21T01:57:29.536Z,1.20
2023-01-21T01:58:29.514Z,1.22
2023-01-21T01:59:29.466Z,1.20
2023-01-21T02:00:29.500Z,1.20
2023-01-21T02:01:29.533Z,1.22
2023-01-21T02:02:29.476Z,1.23
2023-01-21T02:03:29.448Z,1.24
2023-01-21T02:04:29.463Z,1.24
2023-01-21T02:05:29.397Z,1.24
2023-01-21T02:06:29.426Z,1.26
2023-01-21T02:07:29.399Z,1.23
2023-01-21T02:08:29.390Z,1.23
2023-01-21T02:09:29.378Z,1.23
2023-01-21T02:10:29.381Z,1.23
2023-01-21T02:11:29.325Z,1.23
2023-01-21T02:12:29.366Z,1.22
2023-01-21T02:13:29.306Z,1.22
2023-01-21T02:14:29.341Z,1.20
2023-01-21T02:15:29.276Z,1.18
2023-01-21T02:16:29.413Z,1.15
2023-01-21T02:17:29.267Z,1.15
2023-01-21T02:18:29.276Z,1.15
2023-01-21T02:19:29.245Z,1.15
2023-01-21T02:20:29.234Z,1.16
2023-01-21T02:21:29.200Z,1.16
2023-01-21T02:22:29.218Z,1.15
2023-01-21T02:23:29.277Z,1.14
2023-01-21T02:24:29.193Z,1.14
2023-01-21T02:25:29.158Z,1.14
2023-01-21T02:26:29.177Z,1.14
2023-01-21T02:27:31.148Z,1.14
2023-01-21T02:28:29.125Z,1.12
2023-01-21T02:29:29.110Z,1.12
2023-01-21T02:30:29.116Z,1.14
2023-01-21T02:31:29.083Z,1.14
2023-01-21T02:32:29.093Z,1.12
2023-01-21T02:33:29.036Z,1.11
2023-01-21T02:34:29.044Z,1.09
2023-01-21T02:35:29.028Z,1.08
2023-01-21T02:36:29.046Z,1.05
2023-01-21T02:37:28.987Z,1.04
2023-01-21T02:38:30.012Z,1.02
2023-01-21T02:39:29.000Z,1.00
2023-01-21T02:40:28.974Z,1.02
2023-01-21T02:41:28.958Z,0.98
2023-01-21T02:42:28.962Z,0.97
2023-01-21T02:43:28.916Z,0.96
2023-01-21T02:44:28.913Z,0.93
2023-01-21T02:45:28.887Z,0.93
2023-01-21T02:46:28.956Z,0.91
2023-01-21T02:47:28.899Z,0.93
2023-01-21T02:48:28.874Z,0.93
2023-01-21T02:49:28.850Z,0.91
2023-01-21T02:50:28.835Z,0.90
2023-01-21T02:51:28.826Z,0.90
2023-01-21T02:52:28.824Z,0.91
2023-01-21T02:53:28.788Z,0.91
2023-01-21T02:54:28.798Z,0.88
2023-01-21T02:55:28.779Z,0.87
2023-01-21T02:56:28.768Z,0.87
2023-01-21T02:57:28.747Z,0.83
2023-01-21T02:58:28.756Z,0.80
2023-01-21T02:59:28.729Z,0.80
2023-01-21T03:00:28.734Z,0.80
2023-01-21T03:01:28.675Z,0.78
2023-01-21T03:02:28.698Z,0.75
2023-01-21T03:03:28.669Z,0.69
2023-01-21T03:04:28.665Z,0.68
2023-01-21T03:05:28.631Z,0.66
2023-01-21T03:06:28.627Z,0.66
2023-01-21T03:07:28.630Z,0.68
2023-01-21T03:08:28.635Z,0.68
2023-01-21T03:09:28.605Z,0.69
2023-01-21T03:10:28.583Z,0.66
2023-01-21T03:11:28.568Z,0.65
2023-01-21T03:12:28.608Z,0.62
2023-01-21T03:13:28.518Z,0.61
2023-01-21T03:14:28.552Z,0.60
2023-01-21T03:15:28.487Z,0.55
2023-01-21T03:16:28.586Z,0.53
2023-01-21T03:17:28.474Z,0.49
2023-01-21T03:18:28.506Z,0.49
2023-01-21T03:19:28.452Z,0.50
2023-01-21T03:20:28.465Z,0.49
2023-01-21T03:21:28.422Z,0.50
2023-01-21T03:22:28.426Z,0.50
2023-01-21T03:23:28.429Z,0.47
2023-01-21T03:24:28.381Z,0.47
2023-01-21T03:25:28.399Z,0.46
2023-01-21T03:26:28.371Z,0.44
2023-01-21T03:27:28.422Z,0.44
2023-01-21T03:28:28.326Z,0.44
2023-01-21T03:29:28.346Z,0.41
2023-01-21T03:30:28.317Z,0.39
2023-01-21T03:31:28.383Z,0.38
2023-01-21T03:32:28.283Z,0.36
2023-01-21T03:33:28.290Z,0.33
2023-01-21T03:34:28.248Z,0.31
2023-01-21T03:35:28.261Z,0.29
2023-01-21T03:36:28.240Z,0.28
2023-01-21T03:37:28.243Z,0.24
2023-01-21T03:38:28.201Z,0.21
2023-01-21T03:39:28.221Z,0.17
2023-01-21T03:40:28.171Z,0.15
2023-01-21T03:41:28.201Z,0.14
2023-01-21T03:42:28.139Z,0.11
2023-01-21T03:43:28.151Z,0.10
2023-01-21T03:44:28.140Z,0.08
2023-01-21T03:45:28.183Z,0.07
2023-01-21T03:46:28.108Z,0.03
2023-01-21T03:47:28.101Z,-0.01
2023-01-21T03:48:28.077Z,0.00
2023-01-21T03:49:28.108Z,-0.04
2023-01-21T03:50:28.041Z,-0.04
2023-01-21T03:51:28.049Z,-0.07
2023-01-21T03:52:28.048Z,-0.07
2023-01-21T03:53:28.050Z,-0.07
2023-01-21T03:54:27.992Z,-0.08
2023-01-21T03:55:28.023Z,-0.10
2023-01-21T03:56:27.974Z,-0.08
2023-01-21T03:57:28.001Z,-0.11
2023-01-21T03:58:27.959Z,-0.15
2023-01-21T03:59:27.954Z,-0.16
2023-01-21T04:00:27.915Z,-0.19
2023-01-21T04:01:27.931Z,-0.19
2023-01-21T04:02:27.902Z,-0.22
2023-01-21T04:03:27.899Z,-0.22
2023-01-21T04:04:27.883Z,-0.25
2023-01-21T04:05:27.882Z,-0.26
2023-01-21T04:06:27.836Z,-0.28
2023-01-21T04:07:27.849Z,-0.28
2023-01-21T04:08:27.826Z,-0.28
2023-01-21T04:09:27.840Z,-0.31
2023-01-21T04:10:27.785Z,-0.34
2023-01-21T04:11:27.801Z,-0.36
2023-01-21T04:12:27.757Z,-0.37
2023-01-21T04:13:27.780Z,-0.40
2023-01-21T04:14:27.764Z,-0.42
2023-01-21T04:15:27.747Z,-0.42
2023-01-21T04:16:27.769Z,-0.42
2023-01-21T04:17:27.726Z,-0.43
2023-01-21T04:18:27.678Z,-0.46
2023-01-21T04:19:27.700Z,-0.47
2023-01-21T04:20:27.678Z,-0.49
2023-01-21T04:21:27.683Z,-0.52
2023-01-21T04:22:27.641Z,-0.49
2023-01-21T04:23:27.690Z,-0.49
2023-01-21T04:24:27.611Z,-0.47
2023-01-21T04:25:27.632Z,-0.49
2023-01-21T04:26:27.584Z,-0.49
2023-01-21T04:27:27.605Z,-0.49
2023-01-21T04:28:27.573Z,-0.52
2023-01-21T04:29:27.558Z,-0.54
2023-01-21T04:30:27.547Z,-0.54
2023-01-21T04:31:27.565Z,-0.57
2023-01-21T04:32:27.501Z,-0.57
2023-01-21T04:33:27.563Z,-0.55
2023-01-21T04:34:27.485Z,-0.57
2023-01-21T04:35:27.486Z,-0.58
2023-01-21T04:36:27.453Z,-0.58
2023-01-21T04:37:27.495Z,-0.61
2023-01-21T04:38:27.473Z,-0.62
2023-01-21T04:39:27.434Z,-0.62
2023-01-21T04:40:27.402Z,-0.65
2023-01-21T04:41:27.413Z,-0.64
2023-01-21T04:42:27.406Z,-0.65
2023-01-21T04:43:27.372Z,-0.67
2023-01-21T04:44:27.367Z,-0.65
2023-01-21T04:45:27.357Z,-0.62
2023-01-21T04:46:27.325Z,-0.60
2023-01-21T04:47:27.371Z,-0.58
2023-01-21T04:48:27.294Z,-0.58
2023-01-21T04:49:27.313Z,-0.58
2023-01-21T04:50:27.266Z,-0.58
2023-01-21T04:51:27.292Z,-0.57
2023-01-21T04:52:27.279Z,-0.58
2023-01-21T04:53:27.256Z,-0.55
2023-01-21T04:54:27.221Z,-0.58
2023-01-21T04:55:27.245Z,-0.55
2023-01-21T04:56:27.199Z,-0.57
2023-01-21T04:57:27.230Z,-0.57
2023-01-21T04:58:27.183Z,-0.55
2023-01-21T04:59:27.184Z,-0.54
2023-01-21T05:00:27.150Z,-0.51
2023-01-21T05:01:27.236Z,-0.51
2023-01-21T05:02:27.176Z,-0.49
2023-01-21T05:03:27.149Z,-0.49
2023-01-21T05:04:27.111Z,-0.47
2023-01-21T05:05:27.116Z,-0.46
2023-01-21T05:06:27.077Z,-0.44
2023-01-21T05:07:27.075Z,-0.47
2023-01-21T05:08:27.063Z,-0.46
2023-01-21T05:09:27.058Z,-0.47
2023-01-21T05:10:27.023Z,-0.46
2023-01-21T05:11:27.068Z,-0.44
2023-01-21T05:12:27.010Z,-0.44
2023-01-21T05:13:26.999Z,-0.44
2023-01-21T05:14:26.978Z,-0.44
2023-01-21T05:15:27.072Z,-0.42
2023-01-21T05:16:26.968Z,-0.43
2023-01-21T05:17:26.964Z,-0.40
2023-01-21T05:18:26.914Z,-0.42
2023-01-21T05:19:26.983Z,-0.43
2023-01-21T05:20:26.915Z,-0.42
2023-01-21T05:21:26.940Z,-0.43
2023-01-21T05:22:26.887Z,-0.46
2023-01-21T05:23:26.904Z,-0.46
2023-01-21T05:24:26.843Z,-0.46
2023-01-21T05:25:26.884Z,-0.44
2023-01-21T05:26:26.819Z,-0.46
2023-01-21T05:27:26.835Z,-0.46
2023-01-21T05:28:26.797Z,-0.44
2023-01-21T05:29:26.822Z,-0.47
2023-01-21T05:30:26.791Z,-0.49
2023-01-21T05:31:26.872Z,-0.51
2023-01-21T05:32:26.727Z,-0.52
2023-01-21T05:33:26.763Z,-0.52
2023-01-21T05:34:26.706Z,-0.51
2023-01-21T05:35:26.740Z,-0.51
2023-01-21T05:36:26.700Z,-0.51
2023-01-21T05:37:26.698Z,-0.49
2023-01-21T05:38:26.684Z,-0.49
2023-01-21T05:39:26.689Z,-0.46
2023-01-21T05:40:26.659Z,-0.46
2023-01-21T05:41:26.663Z,-0.47
2023-01-21T05:42:26.605Z,-0.49
2023-01-21T05:43:26.608Z,-0.47
2023-01-21T05:44:26.579Z,-0.51
2023-01-21T05:45:26.612Z,-0.52
2023-01-21T05:46:26.683Z,-0.54
2023-01-21T05:47:26.569Z,-0.54
2023-01-21T05:48:26.535Z,-0.54
2023-01-21T05:49:26.555Z,-0.57
2023-01-21T05:50:26.496Z,-0.57
2023-01-21T05:51:26.556Z,-0.58
2023-01-21T05:52:26.496Z,-0.62
2023-01-21T05:53:26.495Z,-0.61
2023-01-21T05:54:26.452Z,-0.60
2023-01-21T05:55:26.462Z,-0.61
2023-01-21T05:56:26.447Z,-0.61
2023-01-21T05:57:26.437Z,-0.64
2023-01-21T05:58:26.413Z,-0.65
2023-01-21T05:59:26.411Z,-0.65
2023-01-21T06:00:26.389Z,-0.69
2023-01-21T06:01:26.400Z,-0.70
2023-01-21T06:02:26.430Z,-0.69
2023-01-21T06:03:26.484Z,-0.70
2023-01-21T06:04:26.329Z,-0.72
2023-01-21T06:05:26.337Z,-0.70
2023-01-21T06:06:26.298Z,-0.70
2023-01-21T06:07:26.326Z,-0.69
2023-01-21T06:08:26.283Z,-0.70
2023-01-21T06:09:26.300Z,-0.70
2023-01-21T06:10:26.245Z,-0.72
2023-01-21T06:11:26.276Z,-0.70
2023-01-21T06:12:26.244Z,-0.70
2023-01-21T06:13:26.264Z,-0.70
2023-01-21T06:14:26.196Z,-0.72
2023-01-21T06:15:26.223Z,-0.72
2023-01-21T06:16:26.179Z,-0.75
2023-01-21T06:17:26.236Z,-0.76
2023-01-21T06:18:26.155Z,-0.76
2023-01-21T06:19:26.196Z,-0.76
2023-01-21T06:20:26.114Z,-0.80
2023-01-21T06:21:26.222Z,-0.82
2023-01-21T06:22:26.109Z,-0.82
2023-01-21T06:23:26.130Z,-0.83
2023-01-21T06:24:26.073Z,-0.85
2023-01-21T06:25:26.087Z,-0.85
2023-01-21T06:26:27.229Z,-0.86
2023-01-21T06:27:26.056Z,-0.91
2023-01-21T06:28:26.022Z,-0.91
2023-01-21T06:29:26.036Z,-0.92
2023-01-21T06:30:26.007Z,-0.94
2023-01-21T06:31:26.156Z,-0.97
2023-01-21T06:32:25.995Z,-0.97
2023-01-21T06:33:25.984Z,-0.99
2023-01-21T06:34:25.953Z,-1.02
2023-01-21T06:35:25.967Z,-1.07
2023-01-21T06:36:25.971Z,-1.10
2023-01-21T06:37:25.927Z,-1.13
2023-01-21T06:38:25.892Z,-1.16
2023-01-21T06:39:25.905Z,-1.20
2023-01-21T06:40:25.880Z,-1.20
2023-01-21T06:41:25.878Z,-1.22
2023-01-21T06:42:25.837Z,-1.23
2023-01-21T06:43:25.864Z,-1.27
2023-01-21T06:44:25.831Z,-1.28
2023-01-21T06:45:25.834Z,-1.31
2023-01-21T06:46:25.836Z,-1.34
2023-01-21T06:47:25.814Z,-1.34
2023-01-21T06:48:25.771Z,-1.37
2023-01-21T06:49:25.777Z,-1.38
2023-01-21T06:50:25.739Z,-1.41
2023-01-21T06:51:25.797Z,-1.45
2023-01-21T06:52:25.714Z,-1.49
2023-01-21T06:53:25.743Z,-1.51
2023-01-21T06:54:25.703Z,-1.51
2023-01-21T06:55:25.717Z,-1.54
2023-01-21T06:56:25.679Z,-1.58
2023-01-21T06:57:25.687Z,-1.59
2023-01-21T06:58:25.636Z,-1.61
2023-01-21T06:59:25.649Z,-1.62
2023-01-21T07:00:25.641Z,-1.64
2023-01-21T07:01:25.639Z,-1.67
2023-01-21T07:02:25.642Z,-1.69
2023-01-21T07:03:25.612Z,-1.69
2023-01-21T07:04:25.562Z,-1.70
2023-01-21T07:05:25.571Z,-1.72
2023-01-21T07:06:25.555Z,-1.73
2023-01-21T07:07:25.558Z,-1.76
2023-01-21T07:08:25.503Z,-1.77
2023-01-21T07:09:25.541Z,-1.79
2023-01-21T07:10:25.484Z,-1.79
2023-01-21T07:11:25.513Z,-1.80
2023-01-21T07:12:25.506Z,-1.82
2023-01-21T07:13:25.481Z,-1.84
2023-01-21T07:14:25.516Z,-1.87
2023-01-21T07:15:25.445Z,-1.87
2023-01-21T07:16:25.453Z,-1.88
2023-01-21T07:17:25.426Z,-1.85
2023-01-21T07:18:25.423Z,-1.85
2023-01-21T07:19:25.396Z,-1.84
2023-01-21T07:20:25.360Z,-1.82
2023-01-21T07:21:25.376Z,-1.84
2023-01-21T07:22:25.351Z,-1.80
2023-01-21T07:23:25.349Z,-1.79
2023-01-21T07:24:25.323Z,-1.79
2023-01-21T07:25:25.342Z,-1.77
2023-01-21T07:26:25.282Z,-1.77
2023-01-21T07:27:25.300Z,-1.74
2023-01-21T07:28:25.297Z,-1.77
2023-01-21T07:29:25.264Z,-1.76
2023-01-21T07:30:25.239Z,-1.76
2023-01-21T07:31:25.339Z,-1.77
2023-01-21T07:32:25.252Z,-1.76
2023-01-21T07:33:25.230Z,-1.74
2023-01-21T07:34:25.198Z,-1.73
2023-01-21T07:35:25.210Z,-1.73
2023-01-21T07:36:25.159Z,-1.70
2023-01-21T07:37:25.188Z,-1.70
2023-01-21T07:38:25.135Z,-1.70
2023-01-21T07:39:25.675Z,-1.69
2023-01-21T07:40:25.139Z,-1.67
2023-01-21T07:41:25.175Z,-1.66
2023-01-21T07:42:25.097Z,-1.62
2023-01-21T07:43:25.080Z,-1.64
2023-01-21T07:44:25.093Z,-1.61
2023-01-21T07:45:25.043Z,-1.61
2023-01-21T07:46:25.065Z,-1.61
2023-01-21T07:47:25.044Z,-1.62
2023-01-21T07:48:25.057Z,-1.61
2023-01-21T07:49:25.047Z,-1.59
2023-01-21T07:50:25.009Z,-1.59
2023-01-21T07:51:24.985Z,-1.56
2023-01-21T07:52:25.000Z,-1.56
2023-01-21T07:53:24.942Z,-1.54
2023-01-21T07:54:24.974Z,-1.56
2023-01-21T07:55:24.932Z,-1.56
2023-01-21T07:56:24.941Z,-1.55
2023-01-21T07:57:24.919Z,-1.52
2023-01-21T07:58:24.919Z,-1.51
2023-01-21T07:59:24.877Z,-1.54
2023-01-21T08:00:24.909Z,-1.52
2023-01-21T08:01:25.561Z,-1.51
2023-01-21T08:02:25.030Z,-1.52
2023-01-21T08:03:24.859Z,-1.51
2023-01-21T08:04:24.849Z,-1.49
2023-01-21T08:05:24.815Z,-1.48
2023-01-21T08:06:24.806Z,-1.46
2023-01-21T08:07:24.777Z,-1.45
2023-01-21T08:08:24.787Z,-1.46
2023-01-21T08:09:24.786Z,-1.46
2023-01-21T08:10:24.822Z,-1.43
2023-01-21T08:11:24.729Z,-1.43
2023-01-21T08:12:27.140Z,-1.41
2023-01-21T08:13:24.711Z,-1.41
2023-01-21T08:14:24.730Z,-1.38
2023-01-21T08:15:24.668Z,-1.37
2023-01-21T08:16:24.749Z,-1.33
2023-01-21T08:17:24.668Z,-1.33
2023-01-21T08:18:24.663Z,-1.33
2023-01-21T08:19:24.686Z,-1.34
2023-01-21T08:20:24.670Z,-1.33
2023-01-21T08:21:24.594Z,-1.31
2023-01-21T08:22:24.616Z,-1.27
2023-01-21T08:23:24.583Z,-1.28
2023-01-21T08:24:24.583Z,-1.28
2023-01-21T08:25:24.557Z,-1.28
2023-01-21T08:26:25.743Z,-1.27
2023-01-21T08:27:24.540Z,-1.23
2023-01-21T08:28:24.558Z,-1.23
2023-01-21T08:29:24.499Z,-1.22
2023-01-21T08:30:24.560Z,-1.23
2023-01-21T08:31:24.544Z,-1.23
2023-01-21T08:32:24.496Z,-1.20
2023-01-21T08:33:24.460Z,-1.19
2023-01-21T08:34:24.503Z,-1.19
2023-01-21T08:35:24.448Z,-1.17
2023-01-21T08:36:24.444Z,-1.16
2023-01-21T08:37:24.392Z,-1.13
2023-01-21T08:38:24.406Z,-1.10
2023-01-21T08:39:24.399Z,-1.05
2023-01-21T08:40:24.353Z,-1.05
2023-01-21T08:41:24.368Z,-1.04
2023-01-21T08:42:24.349Z,-1.02
2023-01-21T08:43:24.344Z,-1.01
2023-01-21T08:44:24.315Z,-1.01
2023-01-21T08:45:24.327Z,-0.98
2023-01-21T08:46:24.280Z,-0.95
2023-01-21T08:47:24.306Z,-0.95
2023-01-21T08:48:24.281Z,-0.94
2023-01-21T08:49:24.261Z,-0.94
2023-01-21T08:50:24.211Z,-0.92
2023-01-21T08:51:24.334Z,-0.94
2023-01-21T08:52:24.238Z,-0.97
2023-01-21T08:53:24.216Z,-0.94
2023-01-21T08:54:24.188Z,-0.89
2023-01-21T08:55:24.182Z,-0.85
2023-01-21T08:56:24.159Z,-0.83
2023-01-21T08:57:24.165Z,-0.85
2023-01-21T08:58:24.153Z,-0.85
2023-01-21T08:59:24.152Z,-0.91
2023-01-21T09:00:24.154Z,-0.91
2023-01-21T09:01:24.135Z,-0.89
2023-01-21T09:02:24.112Z,-0.91
2023-01-21T09:03:24.112Z,-0.89
2023-01-21T09:04:24.039Z,-0.86
2023-01-21T09:05:24.064Z,-0.89
2023-01-21T09:06:24.023Z,-0.83
2023-01-21T09:07:24.107Z,-0.82
2023-01-21T09:08:24.039Z,-0.83
2023-01-21T09:09:24.013Z,-0.85
2023-01-21T09:10:23.990Z,-0.82
2023-01-21T09:11:23.998Z,-0.82
2023-01-21T09:12:23.943Z,-0.82
2023-01-21T09:13:23.993Z,-0.83
2023-01-21T09:14:23.944Z,-0.83
2023-01-21T09:15:23.931Z,-0.85
2023-01-21T09:16:23.951Z,-0.83
2023-01-21T09:17:23.905Z,-0.80
2023-01-21T09:18:23.908Z,-0.79
2023-01-21T09:19:23.940Z,-0.79
2023-01-21T09:20:23.866Z,-0.76
2023-01-21T09:21:23.848Z,-0.75
2023-01-21T09:22:23.807Z,-0.79
2023-01-21T09:23:23.841Z,-0.79
2023-01-21T09:24:23.796Z,-0.76
2023-01-21T09:25:23.820Z,-0.73
2023-01-21T09:26:23.766Z,-0.70
2023-01-21T09:27:23.775Z,-0.75
2023-01-21T09:28:23.804Z,-0.72
2023-01-21T09:29:23.765Z,-0.73
2023-01-21T09:30:23.883Z,-0.76
2023-01-21T09:31:23.752Z,-0.73
2023-01-21T09:32:23.682Z,-0.72
2023-01-21T09:33:23.756Z,-0.70
2023-01-21T09:34:23.661Z,-0.73
2023-01-21T09:35:23.687Z,-0.78
2023-01-21T09:36:23.646Z,-0.75
2023-01-21T09:37:23.686Z,-0.76
2023-01-21T09:38:23.621Z,-0.75
2023-01-21T09:39:23.647Z,-0.73
2023-01-21T09:40:23.587Z,-0.72
2023-01-21T09:41:23.622Z,-0.73
2023-01-21T09:42:23.581Z,-0.72
2023-01-21T09:43:23.574Z,-0.70
2023-01-21T09:44:23.555Z,-0.69
2023-01-21T09:45:23.547Z,-0.65
2023-01-21T09:46:23.519Z,-0.69
2023-01-21T09:47:23.527Z,-0.70
2023-01-21T09:48:23.516Z,-0.65
2023-01-21T09:49:23.563Z,-0.62
2023-01-21T09:50:23.492Z,-0.60
2023-01-21T09:51:23.480Z,-0.58
2023-01-21T09:52:23.457Z,-0.57
2023-01-21T09:53:23.468Z,-0.55
2023-01-21T09:54:23.402Z,-0.55
2023-01-21T09:55:23.424Z,-0.54
2023-01-21T09:56:23.400Z,-0.55
2023-01-21T09:57:23.404Z,-0.55
2023-01-21T09:58:23.380Z,-0.54
2023-01-21T09:59:23.375Z,-0.54
2023-01-21T10:00:23.333Z,-0.51
2023-01-21T10:01:23.474Z,-0.51
2023-01-21T10:02:23.307Z,-0.52
2023-01-21T10:03:23.352Z,-0.58
2023-01-21T10:04:23.383Z,-0.54
2023-01-21T10:05:23.310Z,-0.52
2023-01-21T10:06:23.285Z,-0.51
2023-01-21T10:07:23.278Z,-0.49
2023-01-21T10:08:23.217Z,-0.51
2023-01-21T10:09:23.269Z,-0.46
2023-01-21T10:10:23.215Z,-0.43
2023-01-21T10:11:23.214Z,-0.40
2023-01-21T10:12:23.175Z,-0.39
2023-01-21T10:13:23.193Z,-0.40
2023-01-21T10:14:23.158Z,-0.42
2023-01-21T10:15:23.187Z,-0.47
2023-01-21T10:16:23.128Z,-0.49
2023-01-21T10:17:23.153Z,-0.44
2023-01-21T10:18:23.125Z,-0.43
2023-01-21T10:19:23.109Z,-0.44
2023-01-21T10:20:23.097Z,-0.52
2023-01-21T10:21:23.098Z,-0.58
2023-01-21T10:22:23.046Z,-0.65
2023-01-21T10:23:23.098Z,-0.67
2023-01-21T10:24:23.028Z,-0.76
2023-01-21T10:25:23.035Z,-0.76
2023-01-21T10:26:23.002Z,-0.73
2023-01-21T10:27:23.008Z,-0.78
2023-01-21T10:28:23.006Z,-0.79
2023-01-21T10:29:22.990Z,-0.85
2023-01-21T10:30:22.954Z,-0.80
2023-01-21T10:31:23.062Z,-0.78
2023-01-21T10:32:22.921Z,-0.72
2023-01-21T10:33:22.940Z,-0.67
2023-01-21T10:34:22.921Z,-0.64
2023-01-21T10:35:22.903Z,-0.60
2023-01-21T10:36:22.905Z,-0.58
2023-01-21T10:37:22.874Z,-0.61
2023-01-21T10:38:22.837Z,-0.67
2023-01-21T10:39:22.902Z,-0.70
2023-01-21T10:40:22.825Z,-0.64
2023-01-21T10:41:22.882Z,-0.69
2023-01-21T10:42:22.821Z,-0.72
2023-01-21T10:43:22.819Z,-0.76
2023-01-21T10:44:22.817Z,-0.75
2023-01-21T10:45:22.802Z,-0.73
2023-01-21T10:46:22.767Z,-0.78
2023-01-21T10:47:22.793Z,-0.73
2023-01-21T10:48:22.718Z,-0.62
2023-01-21T10:49:22.729Z,-0.67
2023-01-21T10:50:22.703Z,-0.65
2023-01-21T10:51:22.813Z,-0.65
2023-01-21T10:52:22.722Z,-0.64
2023-01-21T10:53:22.687Z,-0.64
2023-01-21T10:54:22.858Z,-0.58
2023-01-21T10:55:22.728Z,-0.60
2023-01-21T10:56:22.645Z,-0.61
2023-01-21T10:57:22.626Z,-0.62
2023-01-21T10:58:22.586Z,-0.65
2023-01-21T10:59:22.613Z,-0.65
2023-01-21T11:00:22.595Z,-0.61
2023-01-21T11:01:22.611Z,-0.62
2023-01-21T11:02:22.620Z,-0.72
2023-01-21T11:03:22.581Z,-0.69
2023-01-21T11:04:22.524Z,-0.70
2023-01-21T11:05:22.553Z,-0.67
2023-01-21T11:06:22.520Z,-0.61
2023-01-21T11:07:22.516Z,-0.57
2023-01-21T11:08:22.472Z,-0.51
2023-01-21T11:09:22.502Z,-0.47
2023-01-21T11:10:22.442Z,-0.40
2023-01-21T11:11:22.503Z,-0.36
2023-01-21T11:12:22.426Z,-0.29
2023-01-21T11:13:22.438Z,-0.36
2023-01-21T11:14:22.418Z,-0.43
2023-01-21T11:15:22.381Z,-0.54
2023-01-21T11:16:22.367Z,-0.58
2023-01-21T11:17:22.393Z,-0.57
2023-01-21T11:18:22.365Z,-0.52
2023-01-21T11:19:22.357Z,-0.51
2023-01-21T11:20:22.323Z,-0.46
2023-01-21T11:21:22.358Z,-0.46
2023-01-21T11:22:22.298Z,-0.43
2023-01-21T11:23:22.324Z,-0.36
2023-01-21T11:24:22.262Z,-0.39
2023-01-21T11:25:22.278Z,-0.37
2023-01-21T11:26:22.239Z,-0.36
2023-01-21T11:27:22.234Z,-0.31
2023-01-21T11:28:22.212Z,-0.26
2023-01-21T11:29:22.209Z,-0.26
2023-01-21T11:30:44.222Z,-0.23
2023-01-21T11:31:22.336Z,-0.31
2023-01-21T11:32:22.484Z,-0.28
2023-01-21T11:33:22.194Z,-0.29
2023-01-21T11:34:22.128Z,-0.26
2023-01-21T11:35:22.158Z,-0.22
2023-01-21T11:36:22.116Z,-0.16
2023-01-21T11:37:22.123Z,-0.14
2023-01-21T11:38:22.080Z,-0.07
2023-01-21T11:39:22.104Z,-0.05
2023-01-21T11:40:22.458Z,-0.10
2023-01-21T11:41:22.076Z,-0.15
2023-01-21T11:42:22.057Z,-0.23
2023-01-21T11:43:22.036Z,-0.23
2023-01-21T11:44:22.001Z,-0.28
2023-01-21T11:45:22.008Z,-0.34
2023-01-21T11:46:22.086Z,-0.37
2023-01-21T11:47:21.998Z,-0.36
2023-01-21T11:48:22.011Z,-0.33
2023-01-21T11:49:21.979Z,-0.31
2023-01-21T11:50:21.938Z,-0.31
2023-01-21T11:51:21.955Z,-0.29
2023-01-21T11:52:21.909Z,-0.23
2023-01-21T11:53:21.954Z,-0.25
2023-01-21T11:54:21.878Z,-0.25
2023-01-21T11:55:21.890Z,-0.23
2023-01-21T11:56:21.867Z,-0.22
2023-01-21T11:57:21.881Z,-0.19
2023-01-21T11:58:21.874Z,-0.19
2023-01-21T11:59:21.827Z,-0.25
2023-01-21T12:00:21.872Z,-0.29
2023-01-21T12:01:21.781Z,-0.28
2023-01-21T12:02:21.877Z,-0.26
2023-01-21T12:03:21.801Z,-0.19
2023-01-21T12:04:21.787Z,-0.16
2023-01-21T12:05:21.757Z,-0.21
2023-01-21T12:06:21.780Z,-0.22
2023-01-21T12:07:21.705Z,-0.18
2023-01-21T12:08:21.746Z,-0.14
2023-01-21T12:09:21.719Z,-0.19
2023-01-21T12:10:21.720Z,-0.26
2023-01-21T12:11:21.658Z,-0.28
2023-01-21T12:12:21.683Z,-0.28
2023-01-21T12:13:21.671Z,-0.31
2023-01-21T12:14:21.654Z,-0.29
2023-01-21T12:15:21.600Z,-0.25
2023-01-21T12:16:21.670Z,-0.25
2023-01-21T12:17:21.584Z,-0.23
2023-01-21T12:18:21.619Z,-0.28
2023-01-21T12:19:21.560Z,-0.36
2023-01-21T12:20:21.565Z,-0.37
2023-01-21T12:21:21.523Z,-0.37
2023-01-21T12:22:21.568Z,-0.34
2023-01-21T12:23:21.518Z,-0.29
2023-01-21T12:24:21.493Z,-0.33
2023-01-21T12:25:21.496Z,-0.33
2023-01-21T12:26:21.477Z,-0.31
2023-01-21T12:27:21.466Z,-0.31
2023-01-21T12:28:21.497Z,-0.28
2023-01-21T12:29:21.444Z,-0.28
2023-01-21T12:30:21.460Z,-0.22
2023-01-21T12:31:21.555Z,-0.22
2023-01-21T12:32:23.641Z,-0.22
2023-01-21T12:33:21.372Z,-0.23
2023-01-21T12:34:21.426Z,-0.25
2023-01-21T12:35:21.359Z,-0.25
2023-01-21T12:36:21.361Z,-0.26
2023-01-21T12:37:21.353Z,-0.26
2023-01-21T12:38:21.346Z,-0.31
2023-01-21T12:39:21.349Z,-0.33
2023-01-21T12:40:21.336Z,-0.34
2023-01-21T12:41:21.301Z,-0.37
2023-01-21T12:42:21.298Z,-0.42
2023-01-21T12:43:21.265Z,-0.42
2023-01-21T12:44:21.267Z,-0.43
2023-01-21T12:45:21.277Z,-0.43
2023-01-21T12:46:21.281Z,-0.40
2023-01-21T12:47:21.191Z,-0.37
2023-01-21T12:48:21.247Z,-0.39
2023-01-21T12:49:21.181Z,-0.40
2023-01-21T12:50:21.201Z,-0.40
2023-01-21T12:51:21.265Z,-0.36
2023-01-21T12:52:21.163Z,-0.40
2023-01-21T12:53:21.135Z,-0.40
2023-01-21T12:54:21.161Z,-0.40
2023-01-21T12:55:21.097Z,-0.34
2023-01-21T12:56:21.103Z,-0.29
2023-01-21T12:57:21.064Z,-0.28
2023-01-21T12:58:21.103Z,-0.29
2023-01-21T12:59:21.080Z,-0.34
2023-01-21T13:00:21.078Z,-0.34